Bloomville, New York
Current Conditions -  °F | °C
As of 7:15 AM on Thursday 18 Dec 2014 (Local Time) from KMSV Reporting Station
Overcast Overcast  
Wind Chill: 19°   Ceiling: 2100
Heat Index: 30°   Visibility: 10mi
Dew Point: 21°   Wind: 15mph
Humidity: 69%   Direction: 290°WNW
Pressure: 29.92"   Gusts: 23mph
Location:  42.33°N, 74.81°W
Report Text: KMSV 181215Z 29013G20KT 10SM OVC021 M01/M06 A2992 RMK AO1 70007
Loading
Personal Weather Stations






























Interactive Weather Map New forecast layout! Learn more

10-Day Weather Forecast

Advertisements
Track Severe Weather on mobile